createdAt,value
2023-01-29T00:01:42.960Z,6.07
2023-01-29T00:04:10.669Z,6.67
2023-01-29T00:06:40.021Z,7.73
2023-01-29T00:09:07.507Z,6.23
2023-01-29T00:11:36.040Z,6.90
2023-01-29T00:14:03.567Z,6.20
2023-01-29T00:16:31.084Z,6.40
2023-01-29T00:18:58.671Z,5.93
2023-01-29T00:21:26.201Z,6.50
2023-01-29T00:23:56.128Z,6.77
2023-01-29T00:26:23.842Z,6.83
2023-01-29T00:28:51.333Z,6.70
2023-01-29T00:31:20.798Z,6.73
2023-01-29T00:33:48.927Z,6.90
2023-01-29T00:36:17.835Z,6.70
2023-01-29T00:38:46.394Z,7.03
2023-01-29T00:41:34.463Z,5.83
2023-01-29T00:44:28.680Z,5.53
2023-01-29T00:46:56.288Z,6.13
2023-01-29T00:49:24.216Z,6.17
2023-01-29T00:52:05.653Z,6.33
2023-01-29T00:54:33.355Z,5.87
2023-01-29T00:57:02.245Z,5.73
2023-01-29T00:59:29.979Z,6.30
2023-01-29T01:02:11.601Z,6.27
2023-01-29T01:04:39.107Z,6.60
2023-01-29T01:07:07.517Z,6.10
2023-01-29T01:09:53.676Z,6.20
2023-01-29T01:12:23.182Z,6.10
2023-01-29T01:14:50.959Z,6.17
2023-01-29T01:17:18.700Z,6.10
2023-01-29T01:19:46.196Z,5.90
2023-01-29T01:22:13.639Z,6.63
2023-01-29T01:24:41.174Z,6.33
2023-01-29T01:27:08.887Z,6.30
2023-01-29T01:29:37.895Z,6.43
2023-01-29T01:32:06.172Z,5.90
2023-01-29T01:34:33.752Z,6.60
2023-01-29T01:37:01.306Z,6.40
2023-01-29T01:39:28.838Z,5.83
2023-01-29T01:41:56.439Z,6.00
2023-01-29T01:45:04.261Z,6.23
2023-01-29T01:47:36.424Z,6.90
2023-01-29T01:50:08.800Z,6.40
2023-01-29T01:52:39.183Z,6.27
2023-01-29T01:55:07.949Z,6.13
2023-01-29T01:57:35.957Z,6.33
2023-01-29T02:00:11.581Z,6.57
2023-01-29T02:02:59.212Z,6.30
2023-01-29T02:05:45.757Z,5.70
2023-01-29T02:08:31.436Z,6.37
2023-01-29T02:10:59.224Z,5.53
2023-01-29T02:13:27.593Z,6.20
2023-01-29T02:15:56.370Z,6.37
2023-01-29T02:18:23.871Z,6.17
2023-01-29T02:21:08.455Z,6.33
2023-01-29T02:24:12.395Z,6.20
2023-01-29T02:26:56.459Z,5.30
2023-01-29T02:29:34.534Z,6.27
2023-01-29T02:32:17.260Z,5.80
2023-01-29T02:35:10.957Z,6.37
2023-01-29T02:37:46.507Z,6.03
2023-01-29T02:40:25.996Z,5.13
2023-01-29T02:43:03.163Z,3.80
2023-01-29T02:45:34.960Z,4.10
2023-01-29T02:48:04.193Z,4.60
2023-01-29T02:50:38.441Z,4.70
2023-01-29T02:53:10.353Z,5.47
2023-01-29T02:55:43.367Z,5.30
2023-01-29T02:58:14.366Z,5.30
2023-01-29T03:00:47.654Z,4.83
2023-01-29T03:03:19.255Z,5.13
2023-01-29T03:05:54.966Z,5.10
2023-01-29T03:08:36.948Z,4.90
2023-01-29T03:11:07.512Z,4.87
2023-01-29T03:13:41.815Z,5.07
2023-01-29T03:16:19.404Z,5.10
2023-01-29T03:18:53.578Z,5.23
2023-01-29T03:21:43.333Z,5.60
2023-01-29T03:24:31.680Z,4.50
2023-01-29T03:27:21.479Z,4.67
2023-01-29T03:30:08.897Z,4.77
2023-01-29T03:32:39.288Z,4.83
2023-01-29T03:35:11.873Z,5.13
2023-01-29T03:37:45.497Z,4.23
2023-01-29T03:40:14.817Z,4.30
2023-01-29T03:42:56.904Z,4.90
2023-01-29T03:45:33.716Z,4.50
2023-01-29T03:48:10.399Z,4.10
2023-01-29T03:50:42.914Z,3.67
2023-01-29T03:53:18.017Z,4.67
2023-01-29T03:55:55.253Z,5.13
2023-01-29T03:58:30.542Z,4.47
2023-01-29T04:01:03.651Z,4.27
2023-01-29T04:03:35.978Z,4.50
2023-01-29T04:06:10.688Z,3.70
2023-01-29T04:08:46.370Z,4.47
2023-01-29T04:11:17.410Z,3.67
2023-01-29T04:13:44.897Z,4.37
2023-01-29T04:16:18.830Z,4.20
2023-01-29T04:18:49.164Z,4.87
2023-01-29T04:21:17.509Z,4.77
2023-01-29T04:23:45.082Z,4.27
2023-01-29T04:26:26.526Z,3.53
2023-01-29T04:29:04.692Z,3.70
2023-01-29T04:31:39.763Z,4.50
2023-01-29T04:34:19.173Z,4.37
2023-01-29T04:36:54.009Z,5.13
2023-01-29T04:39:27.008Z,4.17
2023-01-29T04:42:00.802Z,4.07
2023-01-29T04:44:36.417Z,4.13
2023-01-29T04:47:12.636Z,4.20
2023-01-29T04:49:46.720Z,4.57
2023-01-29T04:52:21.844Z,4.77
2023-01-29T04:54:58.677Z,5.37
2023-01-29T04:57:31.132Z,4.47
2023-01-29T05:00:03.819Z,6.40
2023-01-29T05:02:35.381Z,4.63
2023-01-29T05:05:06.905Z,5.37
2023-01-29T05:07:37.641Z,5.10
2023-01-29T05:10:06.563Z,5.30
2023-01-29T05:12:35.376Z,5.10
2023-01-29T05:15:07.625Z,5.37
2023-01-29T05:17:35.141Z,4.33
2023-01-29T05:20:04.422Z,4.27
2023-01-29T05:22:32.135Z,4.57
2023-01-29T05:24:59.663Z,5.00
2023-01-29T05:27:50.850Z,5.27
2023-01-29T05:30:18.746Z,4.93
2023-01-29T05:32:46.452Z,5.00
2023-01-29T05:35:15.370Z,5.83
2023-01-29T05:37:42.865Z,5.77
2023-01-29T05:40:11.188Z,5.07
2023-01-29T05:42:38.664Z,5.27
2023-01-29T05:45:07.236Z,4.57
2023-01-29T05:47:34.746Z,5.27
2023-01-29T05:50:02.261Z,5.30
2023-01-29T05:52:31.053Z,4.53
2023-01-29T05:54:58.516Z,3.87
2023-01-29T05:57:25.989Z,5.83
2023-01-29T05:59:53.432Z,4.57
2023-01-29T06:02:21.217Z,6.57
2023-01-29T06:04:48.676Z,5.93
2023-01-29T06:07:16.164Z,5.80
2023-01-29T06:09:44.985Z,6.37
2023-01-29T06:12:12.917Z,5.80
2023-01-29T06:14:40.386Z,5.90
2023-01-29T06:17:07.876Z,6.13
2023-01-29T06:19:35.331Z,6.10
2023-01-29T06:22:02.788Z,6.37
2023-01-29T06:24:30.516Z,5.40
2023-01-29T06:26:59.362Z,5.47
2023-01-29T06:29:26.814Z,5.33
2023-01-29T06:31:54.418Z,5.67
2023-01-29T06:34:21.953Z,5.80
2023-01-29T06:36:49.426Z,6.70
2023-01-29T06:39:16.960Z,6.43
2023-01-29T06:41:45.321Z,6.10
2023-01-29T06:44:14.207Z,6.87
2023-01-29T06:46:41.807Z,6.77
2023-01-29T06:49:09.239Z,6.70
2023-01-29T06:51:36.730Z,5.90
2023-01-29T06:54:06.324Z,6.60
2023-01-29T06:56:33.792Z,6.63
2023-01-29T06:59:01.302Z,7.93
2023-01-29T07:01:36.077Z,6.00
2023-01-29T07:04:04.509Z,5.63
2023-01-29T07:06:32.333Z,5.77
2023-01-29T07:08:59.925Z,5.30
2023-01-29T07:11:27.399Z,6.03
2023-01-29T07:13:54.850Z,6.17
2023-01-29T07:16:23.298Z,5.60
2023-01-29T07:18:52.127Z,6.67
2023-01-29T07:21:19.578Z,5.83
2023-01-29T07:23:47.056Z,6.60
2023-01-29T07:26:14.526Z,6.70
2023-01-29T07:28:42.459Z,6.57
2023-01-29T07:31:14.285Z,6.67
2023-01-29T07:33:43.451Z,5.33
2023-01-29T07:36:12.998Z,7.03
2023-01-29T07:38:40.479Z,6.60
2023-01-29T07:41:08.110Z,6.87
2023-01-29T07:43:35.822Z,6.73
2023-01-29T07:46:04.760Z,6.77
2023-01-29T07:48:32.298Z,6.47
2023-01-29T07:50:59.972Z,7.00
2023-01-29T07:53:29.432Z,7.63
2023-01-29T07:55:57.267Z,7.40
2023-01-29T07:58:24.856Z,7.33
2023-01-29T08:00:52.454Z,7.90
2023-01-29T08:03:21.152Z,7.10
2023-01-29T08:05:49.046Z,6.70
2023-01-29T08:08:16.555Z,6.43
2023-01-29T08:10:45.374Z,7.90
2023-01-29T08:13:12.888Z,9.10
2023-01-29T08:15:43.578Z,7.37
2023-01-29T08:18:11.030Z,9.50
2023-01-29T08:20:38.516Z,6.17
2023-01-29T08:23:07.302Z,6.17
2023-01-29T08:25:36.727Z,6.47
2023-01-29T08:28:05.718Z,7.50
2023-01-29T08:30:34.882Z,8.33
2023-01-29T08:33:03.900Z,6.23
2023-01-29T08:35:31.504Z,5.47
2023-01-29T08:38:00.575Z,7.77
2023-01-29T08:40:29.294Z,6.77
2023-01-29T08:43:01.988Z,7.30
2023-01-29T08:45:32.121Z,8.17
2023-01-29T08:47:59.567Z,7.80
2023-01-29T08:50:27.290Z,5.73
2023-01-29T08:52:58.528Z,7.10
2023-01-29T08:55:26.073Z,6.20
2023-01-29T08:57:53.554Z,5.70
2023-01-29T09:00:21.884Z,8.33
2023-01-29T09:02:50.636Z,8.47
2023-01-29T09:05:18.738Z,9.03
2023-01-29T09:07:46.447Z,6.13
2023-01-29T09:10:13.914Z,6.73
2023-01-29T09:12:41.371Z,7.10
2023-01-29T09:15:10.029Z,8.00
2023-01-29T09:17:37.509Z,7.17
2023-01-29T09:20:07.447Z,7.00
2023-01-29T09:22:35.418Z,6.80
2023-01-29T09:25:03.485Z,10.63
2023-01-29T09:27:30.996Z,10.07
2023-01-29T09:29:58.425Z,7.20
2023-01-29T09:32:52.030Z,11.13
2023-01-29T09:35:15.077Z,9.17
2023-01-29T09:37:42.825Z,7.83
2023-01-29T09:40:22.522Z,7.17
2023-01-29T09:42:52.973Z,6.60
2023-01-29T09:45:24.933Z,8.13
2023-01-29T09:47:53.425Z,8.17
2023-01-29T09:50:27.335Z,7.50
2023-01-29T09:52:58.003Z,6.93
2023-01-29T09:55:28.384Z,7.53
2023-01-29T09:57:59.115Z,7.87
2023-01-29T10:00:32.440Z,7.43
2023-01-29T10:03:16.527Z,6.20
2023-01-29T10:05:59.391Z,18.47
2023-01-29T10:09:02.829Z,13.40
2023-01-29T10:11:43.884Z,17.50
2023-01-29T10:14:19.736Z,21.07
2023-01-29T10:17:03.145Z,32.10
2023-01-29T10:19:58.185Z,39.03
2023-01-29T10:22:46.770Z,38.40
2023-01-29T10:25:17.010Z,29.50
2023-01-29T10:27:50.965Z,24.37
2023-01-29T10:30:27.021Z,22.23
2023-01-29T10:32:56.378Z,28.40
2023-01-29T10:35:26.163Z,15.27
2023-01-29T10:37:55.844Z,13.97
2023-01-29T10:40:25.071Z,15.00
2023-01-29T10:43:00.707Z,14.43
2023-01-29T10:45:37.846Z,9.97
2023-01-29T10:48:21.887Z,18.10
2023-01-29T10:50:54.649Z,20.93
2023-01-29T10:53:48.163Z,15.77
2023-01-29T10:56:29.751Z,28.43
2023-01-29T10:59:02.116Z,24.23
2023-01-29T11:01:29.601Z,19.13
2023-01-29T11:04:00.318Z,20.63
2023-01-29T11:06:31.555Z,22.93
2023-01-29T11:09:07.999Z,42.87
2023-01-29T11:11:39.854Z,43.43
2023-01-29T11:14:13.023Z,40.20
2023-01-29T11:16:45.585Z,45.93
2023-01-29T11:19:14.084Z,43.00
2023-01-29T11:21:53.570Z,53.60
2023-01-29T11:24:22.368Z,52.57
2023-01-29T11:26:52.525Z,52.77
2023-01-29T11:29:39.981Z,43.90
2023-01-29T11:32:12.460Z,44.50
2023-01-29T11:34:58.662Z,55.73
2023-01-29T11:37:33.950Z,50.27
2023-01-29T11:40:02.919Z,49.33
2023-01-29T11:42:33.721Z,44.87
2023-01-29T11:45:01.305Z,49.50
2023-01-29T11:47:31.430Z,50.03
2023-01-29T11:50:02.325Z,53.93
2023-01-29T11:52:40.731Z,47.13
2023-01-29T11:55:18.608Z,42.73
2023-01-29T11:57:51.628Z,45.07
2023-01-29T12:00:23.538Z,46.00
2023-01-29T12:02:55.391Z,45.00
2023-01-29T12:05:25.348Z,40.40
2023-01-29T12:07:56.423Z,19.00
2023-01-29T12:10:34.269Z,28.87
2023-01-29T12:13:19.922Z,36.60
2023-01-29T12:15:49.447Z,30.53
2023-01-29T12:18:26.847Z,33.87
2023-01-29T12:20:58.558Z,23.33
2023-01-29T12:23:36.215Z,25.70
2023-01-29T12:26:10.541Z,24.23
2023-01-29T12:28:49.373Z,18.27
2023-01-29T12:31:25.109Z,13.17
2023-01-29T12:33:57.568Z,6.03
2023-01-29T12:36:29.235Z,5.70
2023-01-29T12:38:56.725Z,15.03
2023-01-29T12:41:34.998Z,21.60
2023-01-29T12:44:07.067Z,20.67
2023-01-29T12:46:39.865Z,19.37
2023-01-29T12:49:16.266Z,15.10
2023-01-29T12:51:54.233Z,27.83
2023-01-29T12:54:27.443Z,22.77
2023-01-29T12:57:00.932Z,15.10
2023-01-29T12:59:32.494Z,12.00
2023-01-29T13:02:10.863Z,9.13
2023-01-29T13:04:43.179Z,10.20
2023-01-29T13:07:15.852Z,12.77
2023-01-29T13:09:46.636Z,15.37
2023-01-29T13:12:18.534Z,14.23
2023-01-29T13:14:50.713Z,11.30
2023-01-29T13:17:24.584Z,15.93
2023-01-29T13:19:55.241Z,34.00
2023-01-29T13:22:26.551Z,42.10
2023-01-29T13:25:04.168Z,36.03
2023-01-29T13:27:36.130Z,19.07
2023-01-29T13:30:04.570Z,23.43
2023-01-29T13:32:33.718Z,17.93
2023-01-29T13:35:05.046Z,27.67
2023-01-29T13:37:34.995Z,37.07
2023-01-29T13:40:05.007Z,37.70
2023-01-29T13:42:43.523Z,51.63
2023-01-29T13:45:21.294Z,46.43
2023-01-29T13:47:52.000Z,48.73
2023-01-29T13:50:25.419Z,45.63
2023-01-29T13:52:58.644Z,47.20
2023-01-29T13:55:31.288Z,39.63
2023-01-29T13:58:01.597Z,43.37
2023-01-29T14:00:56.236Z,47.50
2023-01-29T14:04:04.663Z,49.93
2023-01-29T14:06:48.557Z,49.77
2023-01-29T14:09:51.061Z,51.30
2023-01-29T14:12:37.328Z,51.53
2023-01-29T14:15:23.311Z,50.83
2023-01-29T14:18:01.383Z,54.13
2023-01-29T14:20:45.158Z,57.60
2023-01-29T14:23:25.000Z,50.40
2023-01-29T14:25:52.697Z,53.60
2023-01-29T14:28:24.885Z,57.60
2023-01-29T14:30:55.013Z,52.27
2023-01-29T14:33:28.330Z,44.20
2023-01-29T14:35:57.838Z,37.93
2023-01-29T14:38:28.905Z,42.30
2023-01-29T14:41:15.757Z,36.30
2023-01-29T14:43:43.287Z,29.50
2023-01-29T14:46:46.321Z,25.50
2023-01-29T14:49:13.776Z,18.73
2023-01-29T14:51:46.509Z,18.10
2023-01-29T14:54:21.944Z,17.37
2023-01-29T14:56:59.376Z,24.80
2023-01-29T14:59:33.970Z,22.17
2023-01-29T15:02:11.466Z,15.10
2023-01-29T15:04:44.927Z,13.87
2023-01-29T15:07:21.919Z,14.07
2023-01-29T15:09:57.280Z,12.93
2023-01-29T15:12:33.537Z,9.73
2023-01-29T15:15:07.958Z,11.43
2023-01-29T15:17:41.488Z,10.00
2023-01-29T15:20:29.873Z,9.43
2023-01-29T15:22:57.839Z,7.93
2023-01-29T15:25:26.019Z,7.97
2023-01-29T15:27:55.782Z,7.23
2023-01-29T15:30:33.187Z,6.97
2023-01-29T15:33:03.991Z,7.70
2023-01-29T15:35:36.040Z,7.17
2023-01-29T15:38:06.551Z,7.37
2023-01-29T15:40:35.283Z,7.13
2023-01-29T15:43:02.796Z,6.77
2023-01-29T15:45:32.103Z,7.80
2023-01-29T15:48:06.491Z,7.17
2023-01-29T15:50:37.509Z,8.30
2023-01-29T15:53:10.266Z,8.13
2023-01-29T15:55:37.863Z,8.97
2023-01-29T15:58:05.652Z,8.67
2023-01-29T16:00:33.276Z,8.33
2023-01-29T16:03:14.047Z,9.00
2023-01-29T16:05:42.007Z,8.63
2023-01-29T16:08:14.570Z,8.77
2023-01-29T16:10:43.251Z,8.70
2023-01-29T16:13:19.894Z,8.60
2023-01-29T16:15:56.783Z,8.87
2023-01-29T16:18:29.713Z,8.50
2023-01-29T16:20:59.873Z,9.20
2023-01-29T16:23:30.489Z,9.77
2023-01-29T16:26:03.204Z,11.03
2023-01-29T16:28:31.321Z,8.90
2023-01-29T16:31:02.872Z,8.90
2023-01-29T16:33:36.231Z,9.20
2023-01-29T16:36:05.739Z,8.57
2023-01-29T16:38:36.595Z,9.70
2023-01-29T16:41:16.326Z,8.70
2023-01-29T16:43:54.085Z,9.40
2023-01-29T16:46:26.279Z,8.70
2023-01-29T16:48:55.391Z,10.10
2023-01-29T16:51:26.149Z,9.30
2023-01-29T16:53:56.778Z,14.37
2023-01-29T16:56:25.503Z,9.47
2023-01-29T16:58:55.285Z,9.20
2023-01-29T17:01:25.365Z,9.13
2023-01-29T17:04:05.716Z,9.37
2023-01-29T17:06:33.695Z,9.27
2023-01-29T17:09:01.819Z,10.10
2023-01-29T17:11:34.559Z,10.27
2023-01-29T17:14:02.244Z,10.17
2023-01-29T17:16:32.385Z,10.07
2023-01-29T17:19:02.016Z,9.77
2023-01-29T17:21:30.607Z,10.83
2023-01-29T17:23:58.087Z,11.53
2023-01-29T17:26:25.781Z,10.67
2023-01-29T17:28:54.670Z,10.57
2023-01-29T17:31:22.267Z,11.13
2023-01-29T17:33:49.853Z,10.40
2023-01-29T17:36:19.191Z,10.30
2023-01-29T17:38:47.835Z,10.50
2023-01-29T17:41:20.759Z,9.57
2023-01-29T17:43:48.543Z,10.57
2023-01-29T17:46:18.273Z,10.83
2023-01-29T17:48:46.392Z,10.27
2023-01-29T17:51:16.106Z,10.50
2023-01-29T17:53:46.954Z,10.70
2023-01-29T17:56:17.241Z,10.40
2023-01-29T17:58:45.172Z,10.80
2023-01-29T18:01:12.628Z,11.70
2023-01-29T18:03:40.102Z,11.40
2023-01-29T18:06:08.871Z,11.27
2023-01-29T18:08:38.942Z,10.40
2023-01-29T18:11:07.750Z,11.10
2023-01-29T18:13:36.407Z,12.63
2023-01-29T18:16:04.002Z,12.67
2023-01-29T18:18:31.514Z,11.20
2023-01-29T18:20:58.961Z,11.00
2023-01-29T18:23:26.429Z,11.10
2023-01-29T18:25:57.475Z,10.63
2023-01-29T18:28:26.599Z,11.17
2023-01-29T18:30:54.240Z,11.63
2023-01-29T18:33:24.025Z,10.63
2023-01-29T18:35:51.490Z,11.83
2023-01-29T18:38:18.979Z,10.50
2023-01-29T18:40:46.450Z,10.90
2023-01-29T18:43:14.939Z,11.27
2023-01-29T18:45:44.200Z,11.13
2023-01-29T18:48:11.696Z,10.80
2023-01-29T18:50:39.180Z,11.40
2023-01-29T18:53:07.618Z,11.73
2023-01-29T18:55:37.415Z,11.20
2023-01-29T18:58:28.203Z,11.50
2023-01-29T19:00:53.754Z,11.80
2023-01-29T19:03:21.553Z,12.90
2023-01-29T19:05:49.013Z,18.27
2023-01-29T19:08:16.518Z,12.60
2023-01-29T19:10:43.989Z,11.60
2023-01-29T19:13:11.447Z,11.57
2023-01-29T19:15:42.964Z,11.63
2023-01-29T19:18:14.712Z,11.40
2023-01-29T19:20:42.776Z,11.57
2023-01-29T19:23:10.458Z,12.33
2023-01-29T19:25:38.757Z,12.00
2023-01-29T19:28:07.573Z,10.77
2023-01-29T19:30:35.106Z,10.47
2023-01-29T19:33:03.004Z,11.67
2023-01-29T19:35:32.592Z,11.03
2023-01-29T19:38:00.396Z,10.23
2023-01-29T19:40:28.029Z,11.13
2023-01-29T19:42:56.429Z,10.53
2023-01-29T19:45:49.145Z,11.43
2023-01-29T19:48:14.397Z,11.17
2023-01-29T19:50:43.343Z,11.90
2023-01-29T19:53:10.824Z,11.40
2023-01-29T19:55:38.314Z,12.93
2023-01-29T19:58:05.810Z,11.90
2023-01-29T20:00:33.315Z,12.93
2023-01-29T20:03:00.820Z,11.83
2023-01-29T20:05:28.394Z,11.67
2023-01-29T20:07:57.288Z,11.00
2023-01-29T20:10:24.780Z,14.70
2023-01-29T20:12:52.313Z,12.77
2023-01-29T20:15:19.800Z,13.10
2023-01-29T20:17:47.269Z,12.77
2023-01-29T20:20:16.249Z,12.50
2023-01-29T20:22:44.557Z,13.07
2023-01-29T20:25:14.421Z,12.80
2023-01-29T20:27:42.095Z,13.53
2023-01-29T20:30:11.023Z,12.83
2023-01-29T20:32:38.505Z,13.80
2023-01-29T20:35:06.856Z,13.43
2023-01-29T20:37:34.322Z,14.20
2023-01-29T20:40:01.873Z,13.90
2023-01-29T20:42:30.737Z,14.80
2023-01-29T20:44:58.193Z,14.67
2023-01-29T20:47:25.733Z,14.30
2023-01-29T20:49:53.204Z,14.87
2023-01-29T20:52:20.674Z,15.10
2023-01-29T20:54:48.293Z,15.20
2023-01-29T20:57:16.096Z,14.73
2023-01-29T20:59:45.095Z,14.73
2023-01-29T21:02:12.598Z,13.73
2023-01-29T21:04:40.072Z,13.83
2023-01-29T21:07:07.523Z,14.93
2023-01-29T21:09:35.061Z,14.43
2023-01-29T21:12:05.215Z,15.00
2023-01-29T21:14:32.875Z,14.90
2023-01-29T21:17:02.187Z,15.07
2023-01-29T21:19:30.793Z,15.30
2023-01-29T21:21:58.816Z,15.77
2023-01-29T21:24:26.875Z,14.23
2023-01-29T21:26:54.549Z,15.27
2023-01-29T21:29:22.047Z,15.80
2023-01-29T21:31:49.633Z,15.30
2023-01-29T21:34:18.513Z,15.70
2023-01-29T21:36:46.733Z,15.77
2023-01-29T21:39:20.983Z,16.73
2023-01-29T21:42:08.252Z,17.50
2023-01-29T21:44:36.391Z,16.30
2023-01-29T21:47:12.107Z,16.70
2023-01-29T21:49:45.030Z,17.83
2023-01-29T21:52:13.898Z,17.63
2023-01-29T21:54:41.834Z,17.97
2023-01-29T21:57:14.787Z,16.97
2023-01-29T21:59:42.718Z,17.47
2023-01-29T22:02:14.463Z,17.77
2023-01-29T22:04:42.196Z,17.47
2023-01-29T22:07:11.882Z,17.17
2023-01-29T22:09:39.720Z,17.50
2023-01-29T22:12:08.624Z,18.37
2023-01-29T22:14:36.117Z,19.00
2023-01-29T22:17:03.878Z,18.83
2023-01-29T22:19:31.370Z,19.00
2023-01-29T22:21:58.819Z,19.33
2023-01-29T22:24:27.875Z,19.97
2023-01-29T22:26:55.360Z,19.20
2023-01-29T22:29:23.029Z,18.37
2023-01-29T22:31:50.494Z,19.13
2023-01-29T22:34:17.962Z,18.60
2023-01-29T22:36:45.426Z,19.20
2023-01-29T22:39:13.402Z,18.97
2023-01-29T22:41:42.216Z,19.07
2023-01-29T22:44:09.850Z,20.10
2023-01-29T22:46:37.328Z,20.27
2023-01-29T22:49:04.900Z,19.70
2023-01-29T22:51:32.440Z,19.30
2023-01-29T22:54:01.079Z,19.93
2023-01-29T22:56:29.667Z,20.37
2023-01-29T22:59:00.016Z,19.30
2023-01-29T23:01:29.332Z,19.50
2023-01-29T23:03:57.056Z,19.13
2023-01-29T23:06:25.235Z,19.30
2023-01-29T23:08:52.991Z,19.73
2023-01-29T23:11:23.448Z,20.43
2023-01-29T23:13:52.687Z,19.53
2023-01-29T23:16:29.171Z,19.47
2023-01-29T23:18:57.500Z,20.27
2023-01-29T23:21:27.108Z,19.23
2023-01-29T23:23:55.272Z,20.53
2023-01-29T23:26:40.803Z,19.13
2023-01-29T23:29:08.329Z,19.13
2023-01-29T23:31:37.167Z,20.30
2023-01-29T23:34:04.770Z,19.77
2023-01-29T23:36:32.237Z,20.47
2023-01-29T23:38:59.689Z,20.70
2023-01-29T23:41:27.149Z,19.13
2023-01-29T23:43:54.643Z,19.60
2023-01-29T23:46:22.154Z,17.03
2023-01-29T23:48:50.973Z,19.87
2023-01-29T23:51:18.447Z,19.07
2023-01-29T23:53:45.910Z,19.57
2023-01-29T23:56:13.523Z,18.20
2023-01-29T23:58:41.041Z,19.90
